Los Angeles, CA (90077)

9:03 AM PDT on March 24, 2017 (GMT -0700)
Bel Air (Stone Canyon) | | Change Station
Active Advisory: Special Weather Statement

Elev 879 ft 34.10 °N, 118.46 °W | Updated 8 seconds ago

Clear
Clear
55.6 °F
Feels Like 55.6 °F
N
0.0
Wind Variable Wind from SE
Gusts 0.0 mph

Today
High -- | Low -- °F
--% Chance of Precip.
Yesterday
High -- | Low -- °F
Precip. -- in
Pressure 30.25 in
Visibility 10.0 miles
Clouds Clear
Dew Point 50 °F
Humidity 80%
Rainfall 0.00 in
Snow Depth Not available.
6:51 AM 7:08 PM
Waning Crescent, 14% visible
METAR KSMO 241551Z VRB03KT 10SM CLR 14/11 A3025 RMK AO2 SLP243 T01440106
Pressure 30.25 in
Visibility 10.0 miles
Clouds Clear
Dew Point 50 °F
Humidity 80%
Rainfall 0.00 in
Snow Depth Not available.
6:51 AM 7:08 PM
Waning Crescent, 14% visible
METAR KSMO 241551Z VRB03KT 10SM CLR 14/11 A3025 RMK AO2 SLP243 T01440106

Get Your Daily Forecast Email!

Thanks for signing up!

Be on the lookout for a verification email in your inbox.

You'll start receiving severe weather alerts in your inbox..

×

10-Day Weather Forecast

Almanac

Astronomy

Mar. 24, 2017 Rise Set
Actual Time
Civil Twilight
Nautical Twilight
Astronomical Twilight
Moon
Length of Visible Light
Length of Day
Tomorrow will be .
, % of the Moon is Illuminated

Today's Extremes

State Highs State Lows

Community

WunderPhotos

Upload Photos

1,962,540 photos uploaded!

WunderBlog® & News

Nearby

Air Quality

  Air Quality AQ Index Pollutant
Not available.

Snow Depth

Station Depth Elevation

Earthquake Activity

City Distance Mag. Time & Date
Minimum magnitude displayed is 2.5.

Earthquake Activity

City Distance Mag. Time & Date
Minimum magnitude displayed is 2.5.

Coastal Water Temperatures

Place Temperature

Stations

Nearby Weather Stations

Station Location Temp. Windchill Dew Point Humidity Wind Precip. Elev Updated Type
                   

Watches & Warnings

Special Weather Statement
Issued: 8:57 AM PDT Mar. 24, 2017 – National Weather Service

... Beach hazards statement will expire at 9 am PDT this morning...

Surf has subsided some from earlier this week. Surf of 2 to 4
feet will continue today however with a moderate rip current
risk. Surf should again build on Saturday.